sensor_id;sensor_type;location;lat;lon;timestamp;P1;durP1;ratioP1;P2;durP2;ratioP2
42346;SDS011;75728;51.856;6.314;2024-03-06T00:01:33;2.47;;;0.60;;
42346;SDS011;75728;51.856;6.314;2024-03-06T00:03:59;0.90;;;0.70;;
42346;SDS011;75728;51.856;6.314;2024-03-06T00:06:24;1.00;;;0.63;;
42346;SDS011;75728;51.856;6.314;2024-03-06T00:08:50;1.17;;;0.73;;
42346;SDS011;75728;51.856;6.314;2024-03-06T00:11:16;1.45;;;0.55;;
42346;SDS011;75728;51.856;6.314;2024-03-06T00:13:42;3.28;;;0.90;;
42346;SDS011;75728;51.856;6.314;2024-03-06T00:16:08;1.05;;;0.80;;
42346;SDS011;75728;51.856;6.314;2024-03-06T00:18:34;1.15;;;0.73;;
42346;SDS011;75728;51.856;6.314;2024-03-06T00:20:59;1.45;;;0.80;;
42346;SDS011;75728;51.856;6.314;2024-03-06T00:23:25;2.00;;;0.82;;
42346;SDS011;75728;51.856;6.314;2024-03-06T00:25:51;1.77;;;0.88;;
42346;SDS011;75728;51.856;6.314;2024-03-06T00:28:16;1.52;;;0.85;;
42346;SDS011;75728;51.856;6.314;2024-03-06T00:30:42;1.67;;;0.80;;
42346;SDS011;75728;51.856;6.314;2024-03-06T00:33:08;1.92;;;0.95;;
42346;SDS011;75728;51.856;6.314;2024-03-06T00:35:33;1.30;;;0.80;;
42346;SDS011;75728;51.856;6.314;2024-03-06T00:37:59;1.95;;;0.90;;
42346;SDS011;75728;51.856;6.314;2024-03-06T00:40:27;2.17;;;0.98;;
42346;SDS011;75728;51.856;6.314;2024-03-06T00:42:55;1.65;;;0.98;;
42346;SDS011;75728;51.856;6.314;2024-03-06T00:45:22;2.58;;;0.93;;
42346;SDS011;75728;51.856;6.314;2024-03-06T00:47:48;1.40;;;0.68;;
42346;SDS011;75728;51.856;6.314;2024-03-06T00:50:13;1.50;;;0.90;;
42346;SDS011;75728;51.856;6.314;2024-03-06T00:52:41;1.90;;;0.90;;
42346;SDS011;75728;51.856;6.314;2024-03-06T00:55:07;0.95;;;0.63;;
42346;SDS011;75728;51.856;6.314;2024-03-06T00:57:33;1.38;;;0.70;;
42346;SDS011;75728;51.856;6.314;2024-03-06T00:59:59;1.63;;;0.73;;
42346;SDS011;75728;51.856;6.314;2024-03-06T01:02:25;1.45;;;0.77;;
42346;SDS011;75728;51.856;6.314;2024-03-06T01:04:50;2.22;;;0.75;;
42346;SDS011;75728;51.856;6.314;2024-03-06T01:07:16;1.30;;;0.80;;
42346;SDS011;75728;51.856;6.314;2024-03-06T01:09:42;1.25;;;0.68;;
42346;SDS011;75728;51.856;6.314;2024-03-06T01:12:07;2.55;;;0.50;;
42346;SDS011;75728;51.856;6.314;2024-03-06T01:14:33;1.65;;;0.95;;
42346;SDS011;75728;51.856;6.314;2024-03-06T01:16:59;2.38;;;0.93;;
42346;SDS011;75728;51.856;6.314;2024-03-06T01:19:24;2.03;;;0.75;;
42346;SDS011;75728;51.856;6.314;2024-03-06T01:21:50;1.35;;;0.70;;
42346;SDS011;75728;51.856;6.314;2024-03-06T01:24:15;2.42;;;0.80;;
42346;SDS011;75728;51.856;6.314;2024-03-06T01:26:41;1.88;;;0.70;;
42346;SDS011;75728;51.856;6.314;2024-03-06T01:29:07;0.90;;;0.60;;
42346;SDS011;75728;51.856;6.314;2024-03-06T01:31:32;1.33;;;0.70;;
42346;SDS011;75728;51.856;6.314;2024-03-06T01:33:58;2.13;;;0.80;;
42346;SDS011;75728;51.856;6.314;2024-03-06T01:36:23;1.55;;;0.88;;
42346;SDS011;75728;51.856;6.314;2024-03-06T01:38:49;1.13;;;0.77;;
42346;SDS011;75728;51.856;6.314;2024-03-06T01:41:15;2.33;;;0.85;;
42346;SDS011;75728;51.856;6.314;2024-03-06T01:43:40;1.42;;;0.60;;
42346;SDS011;75728;51.856;6.314;2024-03-06T01:46:06;1.52;;;0.90;;
42346;SDS011;75728;51.856;6.314;2024-03-06T01:48:32;1.00;;;0.70;;
42346;SDS011;75728;51.856;6.314;2024-03-06T01:50:59;1.05;;;0.65;;
42346;SDS011;75728;51.856;6.314;2024-03-06T01:53:27;1.23;;;0.75;;
42346;SDS011;75728;51.856;6.314;2024-03-06T01:55:56;2.22;;;0.60;;
42346;SDS011;75728;51.856;6.314;2024-03-06T01:58:21;1.25;;;0.70;;
42346;SDS011;75728;51.856;6.314;2024-03-06T02:00:49;1.50;;;0.77;;
42346;SDS011;75728;51.856;6.314;2024-03-06T02:03:15;1.60;;;0.80;;
42346;SDS011;75728;51.856;6.314;2024-03-06T02:05:44;1.10;;;0.73;;
42346;SDS011;75728;51.856;6.314;2024-03-06T02:08:10;2.70;;;1.05;;
42346;SDS011;75728;51.856;6.314;2024-03-06T02:10:35;1.48;;;0.73;;
42346;SDS011;75728;51.856;6.314;2024-03-06T02:13:01;1.48;;;0.70;;
42346;SDS011;75728;51.856;6.314;2024-03-06T02:15:26;1.65;;;0.85;;
42346;SDS011;75728;51.856;6.314;2024-03-06T02:17:52;1.10;;;0.80;;
42346;SDS011;75728;51.856;6.314;2024-03-06T02:20:24;1.70;;;0.88;;
42346;SDS011;75728;51.856;6.314;2024-03-06T02:22:50;0.90;;;0.50;;
42346;SDS011;75728;51.856;6.314;2024-03-06T02:25:16;1.83;;;1.00;;
42346;SDS011;75728;51.856;6.314;2024-03-06T02:27:42;1.05;;;0.65;;
42346;SDS011;75728;51.856;6.314;2024-03-06T02:30:09;1.70;;;0.80;;
42346;SDS011;75728;51.856;6.314;2024-03-06T02:32:35;2.22;;;0.80;;
42346;SDS011;75728;51.856;6.314;2024-03-06T02:35:01;1.40;;;0.80;;
42346;SDS011;75728;51.856;6.314;2024-03-06T02:37:33;0.85;;;0.60;;
42346;SDS011;75728;51.856;6.314;2024-03-06T02:39:59;2.20;;;0.70;;
42346;SDS011;75728;51.856;6.314;2024-03-06T02:42:27;1.50;;;0.77;;
42346;SDS011;75728;51.856;6.314;2024-03-06T02:44:53;1.17;;;0.80;;
42346;SDS011;75728;51.856;6.314;2024-03-06T02:47:18;0.90;;;0.70;;
42346;SDS011;75728;51.856;6.314;2024-03-06T02:49:44;1.25;;;0.80;;
42346;SDS011;75728;51.856;6.314;2024-03-06T02:52:10;1.10;;;0.70;;
42346;SDS011;75728;51.856;6.314;2024-03-06T02:54:35;1.48;;;0.77;;
42346;SDS011;75728;51.856;6.314;2024-03-06T02:57:01;1.27;;;0.68;;
42346;SDS011;75728;51.856;6.314;2024-03-06T02:59:26;1.95;;;0.93;;
42346;SDS011;75728;51.856;6.314;2024-03-06T03:01:52;1.15;;;0.77;;
42346;SDS011;75728;51.856;6.314;2024-03-06T03:04:18;1.52;;;0.90;;
42346;SDS011;75728;51.856;6.314;2024-03-06T03:06:43;1.60;;;0.80;;
42346;SDS011;75728;51.856;6.314;2024-03-06T03:09:09;1.10;;;0.85;;
42346;SDS011;75728;51.856;6.314;2024-03-06T03:11:37;1.15;;;0.77;;
42346;SDS011;75728;51.856;6.314;2024-03-06T03:14:03;0.93;;;0.52;;
42346;SDS011;75728;51.856;6.314;2024-03-06T03:16:28;2.65;;;0.70;;
42346;SDS011;75728;51.856;6.314;2024-03-06T03:18:55;2.00;;;0.77;;
42346;SDS011;75728;51.856;6.314;2024-03-06T03:21:20;1.95;;;0.80;;
42346;SDS011;75728;51.856;6.314;2024-03-06T03:23:47;1.17;;;0.80;;
42346;SDS011;75728;51.856;6.314;2024-03-06T03:26:13;1.35;;;0.80;;
42346;SDS011;75728;51.856;6.314;2024-03-06T03:28:39;3.08;;;0.80;;
42346;SDS011;75728;51.856;6.314;2024-03-06T03:31:08;1.15;;;0.90;;
42346;SDS011;75728;51.856;6.314;2024-03-06T03:33:35;1.35;;;0.80;;
42346;SDS011;75728;51.856;6.314;2024-03-06T03:36:04;2.20;;;0.60;;
42346;SDS011;75728;51.856;6.314;2024-03-06T03:38:32;3.33;;;0.60;;
42346;SDS011;75728;51.856;6.314;2024-03-06T03:41:00;1.10;;;0.60;;
42346;SDS011;75728;51.856;6.314;2024-03-06T03:43:29;1.42;;;0.52;;
42346;SDS011;75728;51.856;6.314;2024-03-06T03:45:54;1.00;;;0.65;;
42346;SDS011;75728;51.856;6.314;2024-03-06T03:48:20;1.20;;;0.70;;
42346;SDS011;75728;51.856;6.314;2024-03-06T03:50:45;1.30;;;0.57;;
42346;SDS011;75728;51.856;6.314;2024-03-06T03:53:11;0.88;;;0.60;;
42346;SDS011;75728;51.856;6.314;2024-03-06T03:55:37;1.30;;;0.80;;
42346;SDS011;75728;51.856;6.314;2024-03-06T03:58:02;1.17;;;0.70;;
42346;SDS011;75728;51.856;6.314;2024-03-06T04:00:28;1.23;;;0.60;;
42346;SDS011;75728;51.856;6.314;2024-03-06T04:02:54;0.82;;;0.60;;
42346;SDS011;75728;51.856;6.314;2024-03-06T04:05:19;1.05;;;0.63;;
42346;SDS011;75728;51.856;6.314;2024-03-06T04:07:46;0.90;;;0.80;;
42346;SDS011;75728;51.856;6.314;2024-03-06T04:10:11;1.10;;;0.52;;
42346;SDS011;75728;51.856;6.314;2024-03-06T04:12:37;1.33;;;0.60;;
42346;SDS011;75728;51.856;6.314;2024-03-06T04:15:04;1.58;;;0.63;;
42346;SDS011;75728;51.856;6.314;2024-03-06T04:17:30;1.00;;;0.68;;
42346;SDS011;75728;51.856;6.314;2024-03-06T04:19:55;0.80;;;0.60;;
42346;SDS011;75728;51.856;6.314;2024-03-06T04:22:21;1.63;;;0.70;;
42346;SDS011;75728;51.856;6.314;2024-03-06T04:24:47;0.98;;;0.60;;
42346;SDS011;75728;51.856;6.314;2024-03-06T04:27:13;0.90;;;0.55;;
42346;SDS011;75728;51.856;6.314;2024-03-06T04:29:38;0.75;;;0.45;;
42346;SDS011;75728;51.856;6.314;2024-03-06T04:32:04;1.20;;;0.52;;
42346;SDS011;75728;51.856;6.314;2024-03-06T04:34:30;0.80;;;0.47;;
42346;SDS011;75728;51.856;6.314;2024-03-06T04:36:55;1.23;;;0.60;;
42346;SDS011;75728;51.856;6.314;2024-03-06T04:39:21;0.90;;;0.50;;
42346;SDS011;75728;51.856;6.314;2024-03-06T04:41:47;0.85;;;0.55;;
42346;SDS011;75728;51.856;6.314;2024-03-06T04:44:12;1.30;;;0.82;;
42346;SDS011;75728;51.856;6.314;2024-03-06T04:46:38;0.75;;;0.60;;
42346;SDS011;75728;51.856;6.314;2024-03-06T04:49:04;1.05;;;0.55;;
42346;SDS011;75728;51.856;6.314;2024-03-06T04:51:29;2.60;;;0.55;;
42346;SDS011;75728;51.856;6.314;2024-03-06T04:53:55;1.00;;;0.57;;
42346;SDS011;75728;51.856;6.314;2024-03-06T04:56:20;0.90;;;0.40;;
42346;SDS011;75728;51.856;6.314;2024-03-06T04:58:47;0.93;;;0.57;;
42346;SDS011;75728;51.856;6.314;2024-03-06T05:01:12;0.82;;;0.45;;
42346;SDS011;75728;51.856;6.314;2024-03-06T05:03:38;1.38;;;0.70;;
42346;SDS011;75728;51.856;6.314;2024-03-06T05:06:04;1.08;;;0.50;;
42346;SDS011;75728;51.856;6.314;2024-03-06T05:08:31;0.55;;;0.43;;
42346;SDS011;75728;51.856;6.314;2024-03-06T05:10:56;1.67;;;0.55;;
42346;SDS011;75728;51.856;6.314;2024-03-06T05:13:25;0.95;;;0.60;;
42346;SDS011;75728;51.856;6.314;2024-03-06T05:15:51;1.25;;;0.65;;
42346;SDS011;75728;51.856;6.314;2024-03-06T05:18:17;0.75;;;0.40;;
42346;SDS011;75728;51.856;6.314;2024-03-06T05:20:43;1.45;;;0.38;;
42346;SDS011;75728;51.856;6.314;2024-03-06T05:23:08;1.35;;;0.52;;
42346;SDS011;75728;51.856;6.314;2024-03-06T05:25:34;0.98;;;0.55;;
42346;SDS011;75728;51.856;6.314;2024-03-06T05:27:59;1.00;;;0.55;;
42346;SDS011;75728;51.856;6.314;2024-03-06T05:30:25;1.33;;;0.70;;
42346;SDS011;75728;51.856;6.314;2024-03-06T05:32:51;0.40;;;0.40;;
42346;SDS011;75728;51.856;6.314;2024-03-06T05:35:17;0.98;;;0.50;;
42346;SDS011;75728;51.856;6.314;2024-03-06T05:37:43;1.05;;;0.60;;
42346;SDS011;75728;51.856;6.314;2024-03-06T05:40:08;1.30;;;0.77;;
42346;SDS011;75728;51.856;6.314;2024-03-06T05:42:35;0.60;;;0.45;;
42346;SDS011;75728;51.856;6.314;2024-03-06T05:45:01;1.10;;;0.60;;
42346;SDS011;75728;51.856;6.314;2024-03-06T05:47:31;0.95;;;0.47;;
42346;SDS011;75728;51.856;6.314;2024-03-06T05:49:57;1.35;;;0.60;;
42346;SDS011;75728;51.856;6.314;2024-03-06T05:52:22;0.45;;;0.40;;
42346;SDS011;75728;51.856;6.314;2024-03-06T05:54:49;0.80;;;0.50;;
42346;SDS011;75728;51.856;6.314;2024-03-06T05:57:15;1.02;;;0.50;;
42346;SDS011;75728;51.856;6.314;2024-03-06T05:59:41;0.70;;;0.43;;
42346;SDS011;75728;51.856;6.314;2024-03-06T06:02:07;1.10;;;0.70;;
42346;SDS011;75728;51.856;6.314;2024-03-06T06:04:32;0.82;;;0.40;;
42346;SDS011;75728;51.856;6.314;2024-03-06T06:06:58;1.55;;;0.63;;
42346;SDS011;75728;51.856;6.314;2024-03-06T06:09:24;0.60;;;0.50;;
42346;SDS011;75728;51.856;6.314;2024-03-06T06:11:49;1.58;;;0.60;;
42346;SDS011;75728;51.856;6.314;2024-03-06T06:14:15;0.80;;;0.40;;
42346;SDS011;75728;51.856;6.314;2024-03-06T06:16:41;1.02;;;0.60;;
42346;SDS011;75728;51.856;6.314;2024-03-06T06:19:07;2.15;;;0.47;;
42346;SDS011;75728;51.856;6.314;2024-03-06T06:21:33;0.98;;;0.50;;
42346;SDS011;75728;51.856;6.314;2024-03-06T06:24:01;1.33;;;0.80;;
42346;SDS011;75728;51.856;6.314;2024-03-06T06:26:28;0.93;;;0.47;;
42346;SDS011;75728;51.856;6.314;2024-03-06T06:28:55;0.63;;;0.38;;
42346;SDS011;75728;51.856;6.314;2024-03-06T06:31:22;1.35;;;0.60;;
42346;SDS011;75728;51.856;6.314;2024-03-06T06:33:48;1.00;;;0.60;;
42346;SDS011;75728;51.856;6.314;2024-03-06T06:36:14;1.50;;;0.52;;
42346;SDS011;75728;51.856;6.314;2024-03-06T06:38:40;1.25;;;0.60;;
42346;SDS011;75728;51.856;6.314;2024-03-06T06:41:05;1.50;;;0.45;;
42346;SDS011;75728;51.856;6.314;2024-03-06T06:43:31;2.42;;;0.65;;
42346;SDS011;75728;51.856;6.314;2024-03-06T06:45:56;0.90;;;0.50;;
42346;SDS011;75728;51.856;6.314;2024-03-06T06:48:22;1.35;;;0.80;;
42346;SDS011;75728;51.856;6.314;2024-03-06T06:50:48;1.13;;;0.60;;
42346;SDS011;75728;51.856;6.314;2024-03-06T06:53:13;2.25;;;0.60;;
42346;SDS011;75728;51.856;6.314;2024-03-06T06:55:39;1.00;;;0.73;;
42346;SDS011;75728;51.856;6.314;2024-03-06T06:58:05;0.70;;;0.50;;
42346;SDS011;75728;51.856;6.314;2024-03-06T07:00:31;1.30;;;0.63;;
42346;SDS011;75728;51.856;6.314;2024-03-06T07:02:57;0.98;;;0.50;;
42346;SDS011;75728;51.856;6.314;2024-03-06T07:05:23;1.20;;;0.68;;
42346;SDS011;75728;51.856;6.314;2024-03-06T07:07:49;1.52;;;0.60;;
42346;SDS011;75728;51.856;6.314;2024-03-06T07:10:14;1.48;;;0.52;;
42346;SDS011;75728;51.856;6.314;2024-03-06T07:12:40;0.85;;;0.55;;
42346;SDS011;75728;51.856;6.314;2024-03-06T07:15:06;1.30;;;0.90;;
42346;SDS011;75728;51.856;6.314;2024-03-06T07:17:32;1.13;;;0.70;;
42346;SDS011;75728;51.856;6.314;2024-03-06T07:19:57;0.90;;;0.50;;
42346;SDS011;75728;51.856;6.314;2024-03-06T07:22:23;1.48;;;0.75;;
42346;SDS011;75728;51.856;6.314;2024-03-06T07:24:49;1.05;;;0.65;;
42346;SDS011;75728;51.856;6.314;2024-03-06T07:27:15;1.15;;;0.70;;
42346;SDS011;75728;51.856;6.314;2024-03-06T07:29:40;0.95;;;0.50;;
42346;SDS011;75728;51.856;6.314;2024-03-06T07:32:06;12.73;;;10.80;;
42346;SDS011;75728;51.856;6.314;2024-03-06T07:34:32;14.00;;;10.60;;
42346;SDS011;75728;51.856;6.314;2024-03-06T07:36:58;13.02;;;11.23;;
42346;SDS011;75728;51.856;6.314;2024-03-06T07:39:26;15.85;;;12.00;;
42346;SDS011;75728;51.856;6.314;2024-03-06T07:41:52;14.50;;;12.55;;
42346;SDS011;75728;51.856;6.314;2024-03-06T07:44:19;16.90;;;12.88;;
42346;SDS011;75728;51.856;6.314;2024-03-06T07:46:45;15.10;;;12.63;;
42346;SDS011;75728;51.856;6.314;2024-03-06T07:49:11;16.92;;;12.32;;
42346;SDS011;75728;51.856;6.314;2024-03-06T07:51:36;14.88;;;12.57;;
42346;SDS011;75728;51.856;6.314;2024-03-06T07:54:02;14.68;;;11.95;;
42346;SDS011;75728;51.856;6.314;2024-03-06T07:56:30;14.65;;;12.70;;
42346;SDS011;75728;51.856;6.314;2024-03-06T07:58:56;22.65;;;16.58;;
42346;SDS011;75728;51.856;6.314;2024-03-06T08:01:22;27.67;;;19.65;;
42346;SDS011;75728;51.856;6.314;2024-03-06T08:03:48;32.50;;;24.30;;
42346;SDS011;75728;51.856;6.314;2024-03-06T08:06:14;32.22;;;23.63;;
42346;SDS011;75728;51.856;6.314;2024-03-06T08:08:43;35.55;;;24.83;;
42346;SDS011;75728;51.856;6.314;2024-03-06T08:11:12;32.20;;;24.60;;
42346;SDS011;75728;51.856;6.314;2024-03-06T08:13:38;35.10;;;25.83;;
42346;SDS011;75728;51.856;6.314;2024-03-06T08:16:07;35.80;;;26.10;;
42346;SDS011;75728;51.856;6.314;2024-03-06T08:18:34;36.85;;;26.63;;
42346;SDS011;75728;51.856;6.314;2024-03-06T08:21:00;39.17;;;26.30;;
42346;SDS011;75728;51.856;6.314;2024-03-06T08:23:27;43.55;;;27.50;;
42346;SDS011;75728;51.856;6.314;2024-03-06T08:25:52;41.00;;;27.83;;
42346;SDS011;75728;51.856;6.314;2024-03-06T08:28:18;42.45;;;29.20;;
42346;SDS011;75728;51.856;6.314;2024-03-06T08:30:44;47.72;;;30.65;;
42346;SDS011;75728;51.856;6.314;2024-03-06T08:33:10;46.60;;;30.90;;
42346;SDS011;75728;51.856;6.314;2024-03-06T08:35:36;44.50;;;29.90;;
42346;SDS011;75728;51.856;6.314;2024-03-06T08:38:02;44.30;;;29.60;;
42346;SDS011;75728;51.856;6.314;2024-03-06T08:40:28;48.55;;;31.40;;
42346;SDS011;75728;51.856;6.314;2024-03-06T08:42:54;49.42;;;33.13;;
42346;SDS011;75728;51.856;6.314;2024-03-06T08:45:20;49.47;;;32.97;;
42346;SDS011;75728;51.856;6.314;2024-03-06T08:47:46;48.97;;;33.95;;
42346;SDS011;75728;51.856;6.314;2024-03-06T08:50:13;48.78;;;33.60;;
42346;SDS011;75728;51.856;6.314;2024-03-06T08:52:39;48.95;;;32.67;;
42346;SDS011;75728;51.856;6.314;2024-03-06T08:55:06;46.83;;;31.83;;
42346;SDS011;75728;51.856;6.314;2024-03-06T08:57:32;50.10;;;32.70;;
42346;SDS011;75728;51.856;6.314;2024-03-06T08:59:59;49.75;;;31.73;;
42346;SDS011;75728;51.856;6.314;2024-03-06T09:02:24;34.83;;;23.00;;
42346;SDS011;75728;51.856;6.314;2024-03-06T09:04:51;9.95;;;6.15;;
42346;SDS011;75728;51.856;6.314;2024-03-06T09:07:17;7.50;;;5.35;;
42346;SDS011;75728;51.856;6.314;2024-03-06T09:09:44;7.35;;;4.55;;
42346;SDS011;75728;51.856;6.314;2024-03-06T09:12:11;6.88;;;4.63;;
42346;SDS011;75728;51.856;6.314;2024-03-06T09:14:40;6.32;;;4.65;;
42346;SDS011;75728;51.856;6.314;2024-03-06T09:17:09;6.90;;;5.15;;
42346;SDS011;75728;51.856;6.314;2024-03-06T09:19:35;6.30;;;4.70;;
42346;SDS011;75728;51.856;6.314;2024-03-06T09:22:01;8.40;;;4.95;;
42346;SDS011;75728;51.856;6.314;2024-03-06T09:24:27;6.25;;;3.90;;
42346;SDS011;75728;51.856;6.314;2024-03-06T09:26:53;6.43;;;4.28;;
42346;SDS011;75728;51.856;6.314;2024-03-06T09:29:19;6.78;;;4.43;;
42346;SDS011;75728;51.856;6.314;2024-03-06T09:31:45;10.20;;;3.35;;
42346;SDS011;75728;51.856;6.314;2024-03-06T09:34:12;5.57;;;3.63;;
42346;SDS011;75728;51.856;6.314;2024-03-06T09:36:45;5.15;;;3.50;;
42346;SDS011;75728;51.856;6.314;2024-03-06T09:39:12;5.63;;;3.45;;
42346;SDS011;75728;51.856;6.314;2024-03-06T09:41:41;5.63;;;3.08;;
42346;SDS011;75728;51.856;6.314;2024-03-06T09:44:11;4.55;;;3.15;;
42346;SDS011;75728;51.856;6.314;2024-03-06T09:46:37;4.95;;;3.03;;
42346;SDS011;75728;51.856;6.314;2024-03-06T09:49:03;5.68;;;3.63;;
42346;SDS011;75728;51.856;6.314;2024-03-06T09:51:29;4.90;;;3.50;;
42346;SDS011;75728;51.856;6.314;2024-03-06T09:53:55;4.22;;;3.00;;
42346;SDS011;75728;51.856;6.314;2024-03-06T09:56:21;4.65;;;3.20;;
42346;SDS011;75728;51.856;6.314;2024-03-06T09:58:47;4.85;;;3.20;;
42346;SDS011;75728;51.856;6.314;2024-03-06T10:01:12;5.47;;;3.40;;
42346;SDS011;75728;51.856;6.314;2024-03-06T10:03:39;5.15;;;3.40;;
42346;SDS011;75728;51.856;6.314;2024-03-06T10:06:09;4.38;;;2.65;;
42346;SDS011;75728;51.856;6.314;2024-03-06T10:08:34;3.63;;;2.47;;
42346;SDS011;75728;51.856;6.314;2024-03-06T10:11:02;4.32;;;2.60;;
42346;SDS011;75728;51.856;6.314;2024-03-06T10:13:28;3.97;;;2.55;;
42346;SDS011;75728;51.856;6.314;2024-03-06T10:16:01;4.13;;;1.60;;
42346;SDS011;75728;51.856;6.314;2024-03-06T10:18:33;30.02;;;13.32;;
42346;SDS011;75728;51.856;6.314;2024-03-06T10:20:59;4.55;;;2.85;;
42346;SDS011;75728;51.856;6.314;2024-03-06T10:23:26;10.40;;;4.13;;
42346;SDS011;75728;51.856;6.314;2024-03-06T10:25:54;11.20;;;4.30;;
42346;SDS011;75728;51.856;6.314;2024-03-06T10:28:21;6.82;;;2.50;;
42346;SDS011;75728;51.856;6.314;2024-03-06T10:30:48;4.78;;;2.50;;
42346;SDS011;75728;51.856;6.314;2024-03-06T10:33:15;6.78;;;3.45;;
42346;SDS011;75728;51.856;6.314;2024-03-06T10:35:45;4.47;;;2.20;;
42346;SDS011;75728;51.856;6.314;2024-03-06T10:38:13;6.35;;;2.17;;
42346;SDS011;75728;51.856;6.314;2024-03-06T10:40:39;3.65;;;2.08;;
42346;SDS011;75728;51.856;6.314;2024-03-06T10:43:07;3.97;;;2.20;;
42346;SDS011;75728;51.856;6.314;2024-03-06T10:45:40;4.40;;;2.28;;
42346;SDS011;75728;51.856;6.314;2024-03-06T10:48:13;4.10;;;1.88;;
42346;SDS011;75728;51.856;6.314;2024-03-06T10:50:40;3.38;;;2.05;;
42346;SDS011;75728;51.856;6.314;2024-03-06T10:53:16;4.70;;;2.42;;
42346;SDS011;75728;51.856;6.314;2024-03-06T10:55:43;4.32;;;2.58;;
42346;SDS011;75728;51.856;6.314;2024-03-06T10:58:12;5.05;;;2.65;;
42346;SDS011;75728;51.856;6.314;2024-03-06T11:00:42;4.70;;;2.28;;
42346;SDS011;75728;51.856;6.314;2024-03-06T11:03:15;6.72;;;2.70;;
42346;SDS011;75728;51.856;6.314;2024-03-06T11:05:42;5.32;;;2.55;;
42346;SDS011;75728;51.856;6.314;2024-03-06T11:08:11;4.45;;;2.55;;
42346;SDS011;75728;51.856;6.314;2024-03-06T11:10:38;3.97;;;2.00;;
42346;SDS011;75728;51.856;6.314;2024-03-06T11:16:02;4.38;;;2.42;;
42346;SDS011;75728;51.856;6.314;2024-03-06T11:20:58;5.30;;;2.10;;
42346;SDS011;75728;51.856;6.314;2024-03-06T11:29:18;4.43;;;2.20;;
42346;SDS011;75728;51.856;6.314;2024-03-06T11:32:00;4.03;;;1.85;;
42346;SDS011;75728;51.856;6.314;2024-03-06T11:34:26;3.78;;;1.63;;
42346;SDS011;75728;51.856;6.314;2024-03-06T11:36:56;4.05;;;2.28;;
42346;SDS011;75728;51.856;6.314;2024-03-06T11:39:22;3.75;;;1.88;;
42346;SDS011;75728;51.856;6.314;2024-03-06T11:41:48;4.55;;;2.00;;
42346;SDS011;75728;51.856;6.314;2024-03-06T11:44:15;3.88;;;2.08;;
42346;SDS011;75728;51.856;6.314;2024-03-06T11:46:42;3.17;;;1.98;;
42346;SDS011;75728;51.856;6.314;2024-03-06T11:49:30;4.47;;;2.53;;
42346;SDS011;75728;51.856;6.314;2024-03-06T11:51:58;4.65;;;2.53;;
42346;SDS011;75728;51.856;6.314;2024-03-06T11:54:33;4.07;;;2.50;;
42346;SDS011;75728;51.856;6.314;2024-03-06T11:56:59;4.85;;;2.20;;
42346;SDS011;75728;51.856;6.314;2024-03-06T11:59:27;6.03;;;2.30;;
42346;SDS011;75728;51.856;6.314;2024-03-06T12:01:54;5.15;;;2.28;;
42346;SDS011;75728;51.856;6.314;2024-03-06T12:04:26;6.85;;;3.35;;
42346;SDS011;75728;51.856;6.314;2024-03-06T12:06:52;4.28;;;2.08;;
42346;SDS011;75728;51.856;6.314;2024-03-06T12:09:25;4.82;;;2.42;;
42346;SDS011;75728;51.856;6.314;2024-03-06T12:11:52;4.22;;;2.17;;
42346;SDS011;75728;51.856;6.314;2024-03-06T12:14:18;4.85;;;2.45;;
42346;SDS011;75728;51.856;6.314;2024-03-06T12:16:57;4.03;;;2.10;;
42346;SDS011;75728;51.856;6.314;2024-03-06T12:19:27;4.22;;;2.20;;
42346;SDS011;75728;51.856;6.314;2024-03-06T12:21:58;3.42;;;2.20;;
42346;SDS011;75728;51.856;6.314;2024-03-06T12:24:25;5.55;;;2.50;;
42346;SDS011;75728;51.856;6.314;2024-03-06T12:27:03;7.38;;;3.63;;
42346;SDS011;75728;51.856;6.314;2024-03-06T12:29:30;3.95;;;2.17;;
42346;SDS011;75728;51.856;6.314;2024-03-06T12:31:57;4.38;;;2.20;;
42346;SDS011;75728;51.856;6.314;2024-03-06T12:34:23;3.17;;;2.03;;
42346;SDS011;75728;51.856;6.314;2024-03-06T12:36:49;5.35;;;2.15;;
42346;SDS011;75728;51.856;6.314;2024-03-06T12:39:16;2.90;;;1.80;;
42346;SDS011;75728;51.856;6.314;2024-03-06T12:41:49;4.60;;;2.33;;
42346;SDS011;75728;51.856;6.314;2024-03-06T12:44:15;4.07;;;2.42;;
42346;SDS011;75728;51.856;6.314;2024-03-06T12:46:41;3.28;;;1.88;;
42346;SDS011;75728;51.856;6.314;2024-03-06T12:49:07;4.18;;;2.75;;
42346;SDS011;75728;51.856;6.314;2024-03-06T12:51:32;5.38;;;2.60;;
42346;SDS011;75728;51.856;6.314;2024-03-06T12:53:58;3.83;;;2.20;;
42346;SDS011;75728;51.856;6.314;2024-03-06T12:56:24;7.57;;;3.60;;
42346;SDS011;75728;51.856;6.314;2024-03-06T12:58:51;8.98;;;4.60;;
42346;SDS011;75728;51.856;6.314;2024-03-06T13:01:17;63.60;;;43.58;;
42346;SDS011;75728;51.856;6.314;2024-03-06T13:03:42;38.80;;;22.98;;
42346;SDS011;75728;51.856;6.314;2024-03-06T13:06:08;21.92;;;13.77;;
42346;SDS011;75728;51.856;6.314;2024-03-06T13:08:34;10.88;;;7.20;;
42346;SDS011;75728;51.856;6.314;2024-03-06T13:10:59;13.48;;;6.18;;
42346;SDS011;75728;51.856;6.314;2024-03-06T13:13:25;7.95;;;4.53;;
42346;SDS011;75728;51.856;6.314;2024-03-06T13:15:53;9.65;;;4.78;;
42346;SDS011;75728;51.856;6.314;2024-03-06T13:18:19;8.05;;;4.32;;
42346;SDS011;75728;51.856;6.314;2024-03-06T13:20:45;6.93;;;4.88;;
42346;SDS011;75728;51.856;6.314;2024-03-06T13:23:11;7.82;;;4.05;;
42346;SDS011;75728;51.856;6.314;2024-03-06T13:25:37;5.03;;;3.03;;
42346;SDS011;75728;51.856;6.314;2024-03-06T13:28:03;9.45;;;4.45;;
42346;SDS011;75728;51.856;6.314;2024-03-06T13:30:29;7.97;;;4.50;;
42346;SDS011;75728;51.856;6.314;2024-03-06T13:32:55;7.80;;;4.53;;
42346;SDS011;75728;51.856;6.314;2024-03-06T13:35:21;8.75;;;3.58;;
42346;SDS011;75728;51.856;6.314;2024-03-06T13:37:46;5.53;;;3.20;;
42346;SDS011;75728;51.856;6.314;2024-03-06T13:40:14;7.00;;;4.20;;
42346;SDS011;75728;51.856;6.314;2024-03-06T13:42:39;6.32;;;3.78;;
42346;SDS011;75728;51.856;6.314;2024-03-06T13:45:06;7.60;;;4.40;;
42346;SDS011;75728;51.856;6.314;2024-03-06T13:47:38;8.50;;;4.45;;
42346;SDS011;75728;51.856;6.314;2024-03-06T13:50:06;7.45;;;4.35;;
42346;SDS011;75728;51.856;6.314;2024-03-06T13:52:35;6.90;;;4.00;;
42346;SDS011;75728;51.856;6.314;2024-03-06T13:55:01;8.00;;;4.20;;
42346;SDS011;75728;51.856;6.314;2024-03-06T13:57:29;6.50;;;3.97;;
42346;SDS011;75728;51.856;6.314;2024-03-06T14:00:01;8.27;;;4.10;;
42346;SDS011;75728;51.856;6.314;2024-03-06T14:02:28;6.53;;;4.00;;
42346;SDS011;75728;51.856;6.314;2024-03-06T14:04:54;8.45;;;4.55;;
42346;SDS011;75728;51.856;6.314;2024-03-06T14:07:19;6.97;;;4.22;;
42346;SDS011;75728;51.856;6.314;2024-03-06T14:09:45;11.13;;;4.80;;
42346;SDS011;75728;51.856;6.314;2024-03-06T14:12:11;6.75;;;4.30;;
42346;SDS011;75728;51.856;6.314;2024-03-06T14:14:36;7.88;;;4.65;;
42346;SDS011;75728;51.856;6.314;2024-03-06T14:17:02;8.30;;;5.00;;
42346;SDS011;75728;51.856;6.314;2024-03-06T14:19:29;7.18;;;4.40;;
42346;SDS011;75728;51.856;6.314;2024-03-06T14:21:54;6.97;;;4.22;;
42346;SDS011;75728;51.856;6.314;2024-03-06T14:24:20;6.78;;;4.35;;
42346;SDS011;75728;51.856;6.314;2024-03-06T14:26:46;6.65;;;4.05;;
42346;SDS011;75728;51.856;6.314;2024-03-06T14:29:12;7.28;;;4.50;;
42346;SDS011;75728;51.856;6.314;2024-03-06T14:31:39;6.53;;;4.45;;
42346;SDS011;75728;51.856;6.314;2024-03-06T14:34:04;7.32;;;4.30;;
42346;SDS011;75728;51.856;6.314;2024-03-06T14:36:30;8.85;;;4.63;;
42346;SDS011;75728;51.856;6.314;2024-03-06T14:38:56;6.95;;;4.18;;
42346;SDS011;75728;51.856;6.314;2024-03-06T14:41:21;7.80;;;4.45;;
42346;SDS011;75728;51.856;6.314;2024-03-06T14:43:47;7.40;;;4.45;;
42346;SDS011;75728;51.856;6.314;2024-03-06T14:46:12;12.55;;;7.95;;
42346;SDS011;75728;51.856;6.314;2024-03-06T14:48:38;42.45;;;28.58;;
42346;SDS011;75728;51.856;6.314;2024-03-06T14:51:05;39.17;;;27.17;;